Time;durP1;ratioP1;P1;durP2;ratioP2;P2;SDS_P1;SDS_P2;PMS_P1;PMS_P2;Temp;Humidity;BMP_temperature;BMP_pressure;BME280_temperature;BME280_humidity;BME280_pressure;Samples;Min_cycle;Max_cycle;Signal;HPM_P1;HPM_P2
2022/12/28 00:01:23;;;;;;;2.40;2.00;;;8.70;79.50;;;;;;5055770;28;20454;-86
2022/12/28 00:03:49;;;;;;;1.98;1.77;;;8.70;78.90;;;;;;5039723;28;20031;-86
2022/12/28 00:06:16;;;;;;;2.20;1.80;;;8.70;78.80;;;;;;5056814;28;20029;-86
2022/12/28 00:08:42;;;;;;;2.92;1.90;;;8.70;78.80;;;;;;5055805;28;20067;-86
2022/12/28 00:11:13;;;;;;;2.45;1.95;;;8.70;78.80;;;;;;5055452;28;20033;-86
2022/12/28 00:13:38;;;;;;;2.45;1.90;;;8.70;78.80;;;;;;5056460;28;20033;-86
2022/12/28 00:16:08;;;;;;;2.13;1.88;;;8.80;78.90;;;;;;5038764;28;20115;-86
2022/12/28 00:18:36;;;;;;;2.83;2.00;;;8.80;78.90;;;;;;5055505;28;20029;-85
2022/12/28 00:21:03;;;;;;;2.75;1.80;;;8.70;78.80;;;;;;5055247;28;20033;-86
2022/12/28 00:23:29;;;;;;;2.50;1.90;;;8.70;78.80;;;;;;5038895;28;20087;-86
2022/12/28 00:25:56;;;;;;;2.85;2.08;;;8.80;78.90;;;;;;5071671;28;20045;-86
2022/12/28 00:28:21;;;;;;;3.78;1.83;;;8.70;78.80;;;;;;5056207;28;20111;-86
2022/12/28 00:30:47;;;;;;;2.90;1.90;;;8.80;78.90;;;;;;5054868;28;20511;-87
2022/12/28 00:33:14;;;;;;;1.90;1.65;;;8.80;78.80;;;;;;5055995;28;20032;-86
2022/12/28 00:35:39;;;;;;;3.05;2.00;;;8.80;78.80;;;;;;5038781;28;20091;-85
2022/12/28 00:38:05;;;;;;;3.00;1.95;;;8.80;78.80;;;;;;5034994;28;20478;-86
2022/12/28 00:40:31;;;;;;;2.28;1.95;;;8.80;78.80;;;;;;5035601;28;20097;-85
2022/12/28 00:42:57;;;;;;;2.25;1.80;;;8.80;78.80;;;;;;5035334;28;20071;-86
2022/12/28 00:45:23;;;;;;;1.80;1.70;;;8.80;78.80;;;;;;5035692;28;20037;-86
2022/12/28 00:47:48;;;;;;;4.13;1.85;;;8.80;78.80;;;;;;5051689;28;20032;-85
2022/12/28 00:50:14;;;;;;;1.95;1.70;;;8.80;78.80;;;;;;5051930;28;20475;-85
2022/12/28 00:52:40;;;;;;;2.83;1.83;;;8.80;78.90;;;;;;5035249;28;20065;-86
2022/12/28 00:55:06;;;;;;;2.05;1.83;;;8.80;78.80;;;;;;5050967;28;20500;-86
2022/12/28 00:57:32;;;;;;;2.10;1.80;;;8.80;78.80;;;;;;5019131;28;20022;-85
2022/12/28 00:59:58;;;;;;;2.00;1.80;;;8.80;78.90;;;;;;5018419;28;20094;-85
2022/12/28 01:02:24;;;;;;;2.33;1.90;;;8.80;78.90;;;;;;5051639;28;20099;-86
2022/12/28 01:04:49;;;;;;;1.80;1.70;;;8.80;78.90;;;;;;5017994;28;20521;-86
2022/12/28 01:07:15;;;;;;;2.47;1.85;;;8.80;78.90;;;;;;5034657;28;20113;-85
2022/12/28 01:09:41;;;;;;;2.38;1.80;;;8.80;78.90;;;;;;5034594;28;20029;-85
2022/12/28 01:12:07;;;;;;;2.38;1.80;;;8.80;78.90;;;;;;5034415;28;20022;-85
2022/12/28 01:14:32;;;;;;;2.83;1.92;;;8.80;78.90;;;;;;5034816;28;20092;-86
2022/12/28 01:17:00;;;;;;;2.13;1.88;;;8.80;78.80;;;;;;5018538;28;20199;-84
2022/12/28 01:19:25;;;;;;;2.38;1.90;;;8.80;78.90;;;;;;5051009;28;20025;-85
2022/12/28 01:21:51;;;;;;;3.05;2.00;;;8.80;78.90;;;;;;5034322;28;20044;-86
2022/12/28 01:24:17;;;;;;;1.90;1.80;;;8.80;78.90;;;;;;5051239;28;20386;-85
2022/12/28 01:26:43;;;;;;;2.40;1.80;;;8.90;78.90;;;;;;5034375;28;20034;-85
2022/12/28 01:29:09;;;;;;;1.70;1.60;;;8.90;78.90;;;;;;5034367;28;20026;-86
2022/12/28 01:31:35;;;;;;;2.10;1.90;;;8.80;78.80;;;;;;5035378;28;20390;-85
2022/12/28 01:34:01;;;;;;;3.35;2.28;;;8.90;78.90;;;;;;5034545;28;20033;-86
2022/12/28 01:36:30;;;;;;;2.28;1.70;;;8.80;78.90;;;;;;5050820;28;20528;-85
2022/12/28 01:38:59;;;;;;;1.88;1.70;;;8.90;78.90;;;;;;5064924;28;20474;-85
2022/12/28 01:41:26;;;;;;;2.20;1.92;;;8.90;78.90;;;;;;5055199;28;20070;-85
2022/12/28 01:43:52;;;;;;;2.40;2.20;;;8.80;78.90;;;;;;5037502;28;20039;-86
2022/12/28 01:46:21;;;;;;;2.83;2.20;;;8.80;78.80;;;;;;5037332;28;20495;-85
2022/12/28 01:49:03;;;;;;;2.15;1.92;;;8.90;78.90;;;;;;5053956;28;20124;-85
2022/12/28 01:51:36;;;;;;;2.00;1.80;;;8.90;78.90;;;;;;5054006;28;20379;-85
2022/12/28 01:54:03;;;;;;;2.30;1.92;;;8.90;78.90;;;;;;5054037;28;20438;-86
2022/12/28 01:56:30;;;;;;;2.42;2.13;;;8.90;78.90;;;;;;5053590;28;20033;-86
2022/12/28 01:58:57;;;;;;;3.63;2.30;;;8.90;78.80;;;;;;5053854;28;20458;-86
2022/12/28 02:01:23;;;;;;;2.15;1.90;;;8.90;78.80;;;;;;5036846;28;20036;-85
2022/12/28 02:03:49;;;;;;;2.83;1.95;;;8.90;78.90;;;;;;5054958;28;20032;-85
2022/12/28 02:06:15;;;;;;;2.65;1.83;;;8.90;78.80;;;;;;5036828;28;20043;-86
2022/12/28 02:08:45;;;;;;;2.55;2.20;;;8.90;78.80;;;;;;5053721;28;20118;-85
2022/12/28 02:11:14;;;;;;;2.10;1.88;;;8.90;78.90;;;;;;5054025;28;20446;-85
2022/12/28 02:13:43;;;;;;;3.08;1.90;;;8.90;78.80;;;;;;5053822;28;20031;-85
2022/12/28 02:16:10;;;;;;;2.30;2.10;;;8.90;78.80;;;;;;5036754;28;20039;-86
2022/12/28 02:18:36;;;;;;;2.33;2.10;;;8.90;78.80;;;;;;5053498;28;20025;-85
2022/12/28 02:21:08;;;;;;;2.10;1.90;;;8.90;78.70;;;;;;5053297;28;20100;-85
2022/12/28 02:23:49;;;;;;;2.78;2.00;;;8.90;78.80;;;;;;5037137;28;20033;-86
2022/12/28 02:26:34;;;;;;;3.20;2.30;;;8.90;78.70;;;;;;5053765;28;20037;-86
2022/12/28 02:29:12;;;;;;;2.78;1.75;;;9.00;78.80;;;;;;5070231;28;20063;-86
2022/12/28 02:32:13;;;;;;;3.17;1.95;;;9.00;78.80;;;;;;5054069;28;20044;-86
2022/12/28 02:34:51;;;;;;;2.20;2.00;;;9.00;78.80;;;;;;5070574;28;20033;-85
2022/12/28 02:37:47;;;;;;;3.08;2.08;;;9.00;78.80;;;;;;5054379;28;20057;-85
2022/12/28 02:40:13;;;;;;;2.35;2.00;;;9.00;78.90;;;;;;5053290;28;20041;-85
2022/12/28 02:42:40;;;;;;;2.72;1.98;;;9.00;78.70;;;;;;5057707;28;20086;-85
2022/12/28 02:51:04;;;;;;;2.20;2.00;;;9.00;78.70;;;;;;5078576;28;20496;-86
2022/12/28 02:53:49;;;;;;;2.67;2.20;;;9.00;78.70;;;;;;5077348;28;20131;-86
2022/12/28 02:56:45;;;;;;;2.65;2.05;;;9.00;78.80;;;;;;5077201;28;20110;-86
2022/12/28 02:59:26;;;;;;;2.47;1.85;;;9.00;78.80;;;;;;5060642;28;20025;-85
2022/12/28 03:02:15;;;;;;;2.42;1.95;;;9.00;78.70;;;;;;5077128;28;20025;-87
2022/12/28 03:08:13;;;;;;;2.67;2.20;;;9.00;78.80;;;;;;5060006;28;20126;-85
2022/12/28 03:08:18;;;;;;;2.20;1.88;;;9.00;78.80;;;;;;5015942;28;20076;-85
2022/12/28 03:10:59;;;;;;;2.55;2.15;;;9.10;78.80;;;;;;4983994;28;20084;-86
2022/12/28 03:13:41;;;;;;;2.53;1.95;;;9.10;78.80;;;;;;5064512;28;20036;-87
2022/12/28 03:16:13;;;;;;;2.38;1.92;;;9.10;78.80;;;;;;5061085;28;20078;-86
2022/12/28 03:32:50;;;;;;;1.88;1.70;;;9.10;78.90;;;;;;5060780;28;20036;-87
2022/12/28 03:35:20;;;;;;;2.88;2.10;;;9.10;78.80;;;;;;5078133;28;20082;-87
2022/12/28 03:38:01;;;;;;;2.45;2.00;;;9.10;78.90;;;;;;5077062;28;20056;-87
2022/12/28 03:40:42;;;;;;;3.35;2.03;;;9.10;78.90;;;;;;5077274;28;20070;-87
2022/12/28 03:46:33;;;;;;;2.92;2.03;;;9.20;78.90;;;;;;5060710;28;20427;-87
2022/12/28 03:49:00;;;;;;;2.20;2.00;;;9.20;78.90;;;;;;5060356;28;20029;-87
2022/12/28 03:51:31;;;;;;;2.65;2.20;;;9.20;78.80;;;;;;5077608;28;20107;-88
2022/12/28 03:54:01;;;;;;;2.47;1.92;;;9.20;78.90;;;;;;5044774;28;20040;-88
2022/12/28 03:56:27;;;;;;;2.40;2.08;;;9.20;78.90;;;;;;5058679;28;20033;-87
2022/12/28 03:58:56;;;;;;;2.83;2.28;;;9.20;78.90;;;;;;5060360;28;20031;-87
2022/12/28 04:01:26;;;;;;;2.10;1.88;;;9.20;78.90;;;;;;5061457;28;20032;-88
2022/12/28 04:03:53;;;;;;;2.75;2.20;;;9.20;78.90;;;;;;5076812;28;20033;-87
2022/12/28 04:06:19;;;;;;;2.15;1.80;;;9.20;78.90;;;;;;5076330;28;20120;-86
2022/12/28 04:08:46;;;;;;;3.13;1.92;;;9.30;78.90;;;;;;5077817;28;20454;-87
2022/12/28 04:11:12;;;;;;;2.33;1.90;;;9.20;78.80;;;;;;5077188;28;20025;-87
2022/12/28 04:13:39;;;;;;;2.60;2.05;;;9.30;78.90;;;;;;5076767;28;20480;-87
2022/12/28 04:16:10;;;;;;;1.92;1.80;;;9.30;78.90;;;;;;5077176;28;20074;-87
2022/12/28 04:18:38;;;;;;;2.50;2.10;;;9.30;78.90;;;;;;5043047;28;20085;-87
2022/12/28 04:21:04;;;;;;;2.75;2.05;;;9.30;78.90;;;;;;5076943;28;20096;-87
2022/12/28 04:23:30;;;;;;;2.95;1.98;;;9.30;78.90;;;;;;5059643;28;20048;-86
2022/12/28 04:26:25;;;;;;;2.25;2.05;;;9.30;78.90;;;;;;5055030;28;20036;-87
2022/12/28 04:28:52;;;;;;;3.03;2.15;;;9.30;78.80;;;;;;5076718;28;20037;-87
2022/12/28 04:31:41;;;;;;;2.70;2.10;;;9.30;78.90;;;;;;5070984;28;20032;-87
2022/12/28 04:34:13;;;;;;;2.85;2.05;;;9.40;78.90;;;;;;5044388;28;20031;-88
2022/12/28 04:36:49;;;;;;;2.40;2.00;;;9.30;78.80;;;;;;5076393;28;20465;-86
2022/12/28 04:39:19;;;;;;;2.88;2.20;;;9.40;78.90;;;;;;5043378;28;20101;-87
2022/12/28 04:41:44;;;;;;;2.38;2.10;;;9.40;79.00;;;;;;5042904;28;20492;-87
2022/12/28 04:44:10;;;;;;;2.45;2.05;;;9.40;78.90;;;;;;5076210;28;20044;-87
2022/12/28 04:46:36;;;;;;;2.22;2.03;;;9.40;78.90;;;;;;5076336;28;20393;-88
2022/12/28 04:49:02;;;;;;;2.20;2.00;;;9.40;78.90;;;;;;5059099;28;20477;-88
2022/12/28 04:51:28;;;;;;;2.72;2.25;;;9.40;78.90;;;;;;5077161;28;20055;-87
2022/12/28 04:53:55;;;;;;;2.10;1.90;;;9.40;78.90;;;;;;5080151;28;20033;-86
2022/12/28 04:56:23;;;;;;;2.10;1.90;;;9.50;78.90;;;;;;5077130;28;20036;-87
2022/12/28 04:58:53;;;;;;;2.50;2.22;;;9.40;78.90;;;;;;5042573;28;20025;-87
2022/12/28 05:01:19;;;;;;;2.35;1.88;;;9.40;78.90;;;;;;5076273;28;20051;-87
2022/12/28 05:03:46;;;;;;;3.20;2.03;;;9.40;78.80;;;;;;5058256;28;20043;-86
2022/12/28 05:06:15;;;;;;;2.10;1.90;;;9.50;78.90;;;;;;5057928;28;20025;-88
2022/12/28 05:08:42;;;;;;;2.22;2.00;;;9.40;78.90;;;;;;5075800;28;20029;-86
2022/12/28 05:11:11;;;;;;;3.00;2.13;;;9.50;78.90;;;;;;5075318;28;20024;-86
2022/12/28 05:13:37;;;;;;;2.58;2.03;;;9.50;78.90;;;;;;5058633;28;20024;-87
2022/12/28 05:16:09;;;;;;;3.35;2.28;;;9.50;78.90;;;;;;5074743;28;20025;-86
2022/12/28 05:18:34;;;;;;;2.33;2.00;;;9.50;78.90;;;;;;5041399;28;20024;-86
2022/12/28 05:21:04;;;;;;;3.35;2.05;;;9.50;78.90;;;;;;5057805;28;20380;-87
2022/12/28 05:23:31;;;;;;;2.45;2.22;;;9.60;78.90;;;;;;5075770;28;20064;-87
2022/12/28 05:25:57;;;;;;;2.33;2.05;;;9.50;78.90;;;;;;5057663;28;20170;-88
2022/12/28 05:28:23;;;;;;;3.88;2.63;;;9.50;78.90;;;;;;5074121;28;20036;-86
2022/12/28 05:30:49;;;;;;;2.20;2.00;;;9.60;79.00;;;;;;5074615;28;20020;-87
2022/12/28 05:33:15;;;;;;;2.25;1.90;;;9.50;78.90;;;;;;5057502;28;20032;-87
2022/12/28 05:35:41;;;;;;;2.47;2.00;;;9.60;78.90;;;;;;5057202;28;20067;-87
2022/12/28 05:38:07;;;;;;;2.88;2.20;;;9.60;78.90;;;;;;5058260;28;20097;-87
2022/12/28 05:40:33;;;;;;;3.47;2.47;;;9.60;78.90;;;;;;5057641;28;20028;-88
2022/12/28 05:42:59;;;;;;;2.53;2.20;;;9.60;79.00;;;;;;5024849;28;20028;-87
2022/12/28 05:45:25;;;;;;;2.25;2.00;;;9.60;78.90;;;;;;5078524;28;20112;-87
2022/12/28 05:47:50;;;;;;;2.42;2.17;;;9.60;78.90;;;;;;5062354;28;20117;-86
2022/12/28 05:50:16;;;;;;;2.28;2.00;;;9.60;78.80;;;;;;5078281;28;20021;-87
2022/12/28 05:52:42;;;;;;;2.30;2.10;;;9.60;78.90;;;;;;5076262;28;20032;-86
2022/12/28 05:55:08;;;;;;;2.67;2.20;;;9.60;78.90;;;;;;5074197;28;20033;-87
2022/12/28 05:57:34;;;;;;;2.30;2.10;;;9.70;78.90;;;;;;5060016;28;20024;-87
2022/12/28 05:59:59;;;;;;;2.65;2.20;;;9.70;78.90;;;;;;5074100;28;20091;-87
2022/12/28 06:02:26;;;;;;;2.55;2.30;;;9.70;78.90;;;;;;5057026;28;20457;-87
2022/12/28 06:04:53;;;;;;;2.85;2.20;;;9.70;78.90;;;;;;5056832;28;20055;-86
2022/12/28 06:07:19;;;;;;;2.22;2.00;;;9.70;78.90;;;;;;5074762;28;20036;-87
2022/12/28 06:09:45;;;;;;;2.40;1.98;;;9.70;78.90;;;;;;5057137;28;20080;-87
2022/12/28 06:12:11;;;;;;;2.50;2.30;;;9.70;78.90;;;;;;5056809;28;20028;-87
2022/12/28 06:14:37;;;;;;;2.42;2.20;;;9.70;78.90;;;;;;5073790;28;20039;-87
2022/12/28 06:17:02;;;;;;;2.55;2.28;;;9.70;78.90;;;;;;5040164;28;20041;-87
2022/12/28 06:19:28;;;;;;;2.20;2.00;;;9.70;78.90;;;;;;5039255;28;20036;-87
2022/12/28 06:21:54;;;;;;;2.45;2.15;;;9.80;78.90;;;;;;5073994;28;20496;-87
2022/12/28 06:24:20;;;;;;;2.30;2.00;;;9.80;78.90;;;;;;5074046;28;20052;-87
2022/12/28 06:26:45;;;;;;;2.20;2.00;;;9.80;78.90;;;;;;5073889;28;20442;-87
2022/12/28 06:29:11;;;;;;;2.55;2.20;;;9.80;78.90;;;;;;5073491;28;20132;-87
2022/12/28 06:31:40;;;;;;;2.60;2.20;;;9.80;78.90;;;;;;5056963;28;20454;-87
2022/12/28 06:34:07;;;;;;;2.20;2.00;;;9.80;78.90;;;;;;5040611;28;20035;-86
2022/12/28 06:36:40;;;;;;;2.58;2.08;;;9.80;78.90;;;;;;5072949;28;20048;-87
2022/12/28 06:39:09;;;;;;;2.03;1.90;;;9.80;78.90;;;;;;5056360;28;20148;-88
2022/12/28 06:41:35;;;;;;;2.20;2.00;;;9.90;78.90;;;;;;5056331;28;20388;-87
2022/12/28 06:44:04;;;;;;;2.47;2.13;;;9.90;78.90;;;;;;5074078;28;20481;-86
2022/12/28 06:46:29;;;;;;;2.38;2.08;;;9.90;78.90;;;;;;5056575;28;20029;-88
2022/12/28 06:48:56;;;;;;;3.03;2.10;;;9.90;78.90;;;;;;5056528;28;20115;-86
2022/12/28 06:51:25;;;;;;;2.03;1.83;;;9.90;78.90;;;;;;5056195;28;20052;-86
2022/12/28 06:53:53;;;;;;;2.40;2.20;;;9.90;78.90;;;;;;5074086;28;20031;-86
2022/12/28 06:56:24;;;;;;;2.15;1.83;;;9.90;78.90;;;;;;5056012;28;20488;-87
2022/12/28 06:58:51;;;;;;;2.10;1.90;;;9.90;78.90;;;;;;5055855;28;20028;-87
2022/12/28 07:01:23;;;;;;;2.60;2.03;;;9.90;78.90;;;;;;5073992;28;20393;-86
2022/12/28 07:03:51;;;;;;;2.65;2.00;;;10.00;78.90;;;;;;5073466;28;20354;-87
2022/12/28 07:06:19;;;;;;;2.20;1.90;;;10.00;78.90;;;;;;5073682;28;20059;-86
2022/12/28 07:08:46;;;;;;;1.90;1.67;;;10.00;78.90;;;;;;5055970;28;20044;-86
2022/12/28 07:11:20;;;;;;;1.80;1.70;;;10.00;78.90;;;;;;5056224;28;20514;-87
2022/12/28 07:13:46;;;;;;;1.95;1.80;;;10.00;78.90;;;;;;5073586;28;20458;-86
2022/12/28 07:16:17;;;;;;;2.00;1.80;;;9.90;78.90;;;;;;5056322;28;20095;-86
2022/12/28 07:18:43;;;;;;;2.53;2.00;;;10.00;78.90;;;;;;5072810;28;20116;-86
2022/12/28 07:21:24;;;;;;;2.15;1.95;;;10.00;78.90;;;;;;5056157;28;20098;-86
2022/12/28 07:23:51;;;;;;;2.25;1.90;;;10.00;79.00;;;;;;5073092;28;20048;-85
2022/12/28 07:26:19;;;;;;;2.00;1.75;;;10.00;78.90;;;;;;5056079;28;20043;-86
2022/12/28 07:28:47;;;;;;;2.13;1.90;;;10.00;78.90;;;;;;5055950;28;20052;-86
2022/12/28 07:31:19;;;;;;;2.13;1.88;;;10.10;79.00;;;;;;5075703;28;20063;-86
2022/12/28 07:33:46;;;;;;;1.70;1.60;;;10.00;79.00;;;;;;5077904;28;20064;-84
2022/12/28 07:36:15;;;;;;;1.98;1.80;;;10.10;79.00;;;;;;5060016;28;20055;-86
2022/12/28 07:38:42;;;;;;;2.22;1.98;;;10.10;79.00;;;;;;5059500;28;20056;-86
2022/12/28 07:41:13;;;;;;;2.13;1.92;;;10.10;78.90;;;;;;5077022;28;20461;-87
2022/12/28 07:43:40;;;;;;;1.90;1.80;;;10.10;79.00;;;;;;5059440;28;20033;-88
2022/12/28 07:46:14;;;;;;;2.38;1.95;;;10.10;78.90;;;;;;5059148;28;20020;-86
2022/12/28 07:48:41;;;;;;;2.00;1.80;;;10.20;79.00;;;;;;5059354;28;20064;-87
2022/12/28 07:51:21;;;;;;;2.28;1.75;;;10.10;78.90;;;;;;5076822;28;20027;-88
2022/12/28 07:53:49;;;;;;;2.00;1.80;;;10.20;79.00;;;;;;5059348;28;20473;-87
2022/12/28 07:56:16;;;;;;;1.67;1.58;;;10.20;78.90;;;;;;5059328;28;20037;-88
2022/12/28 07:58:46;;;;;;;1.80;1.70;;;10.20;79.00;;;;;;5058669;28;20032;-87
2022/12/28 08:01:14;;;;;;;1.70;1.60;;;10.20;79.00;;;;;;5059365;28;20024;-89
2022/12/28 08:03:40;;;;;;;2.28;2.08;;;10.20;79.00;;;;;;5059420;28;20389;-86
2022/12/28 08:06:09;;;;;;;2.03;1.73;;;10.20;79.00;;;;;;5058616;28;20028;-88
2022/12/28 08:08:36;;;;;;;1.95;1.85;;;10.20;78.90;;;;;;5041590;28;20028;-89
2022/12/28 08:11:09;;;;;;;1.83;1.67;;;10.20;78.90;;;;;;5042267;28;20036;-90
2022/12/28 08:13:37;;;;;;;3.38;2.10;;;10.30;79.00;;;;;;5042819;28;20156;-89
2022/12/28 08:16:04;;;;;;;2.47;1.92;;;10.20;79.00;;;;;;5080544;28;20032;-90
2022/12/28 08:18:31;;;;;;;2.00;1.80;;;10.20;78.90;;;;;;5064568;28;20429;-89
2022/12/28 08:21:09;;;;;;;2.03;1.85;;;10.30;79.00;;;;;;5063921;28;20050;-90
2022/12/28 08:23:35;;;;;;;1.75;1.65;;;10.30;79.00;;;;;;5079224;28;20029;-90
2022/12/28 08:26:05;;;;;;;2.00;1.80;;;10.30;79.00;;;;;;5058420;28;20059;-85
2022/12/28 08:28:31;;;;;;;2.22;1.75;;;10.30;79.00;;;;;;5058488;28;20036;-86
2022/12/28 08:30:57;;;;;;;1.85;1.70;;;10.30;79.00;;;;;;5041800;28;20025;-83
2022/12/28 08:33:22;;;;;;;2.10;1.88;;;10.30;79.00;;;;;;5075189;28;20032;-86
2022/12/28 08:35:48;;;;;;;2.00;1.63;;;10.30;79.00;;;;;;5075011;28;20036;-83
2022/12/28 08:38:14;;;;;;;1.80;1.70;;;10.30;79.00;;;;;;5075556;28;20510;-85
2022/12/28 08:40:40;;;;;;;2.00;1.80;;;10.40;79.00;;;;;;5075890;28;20342;-86
2022/12/28 08:43:05;;;;;;;1.85;1.70;;;10.40;79.00;;;;;;5040681;28;20146;-88
2022/12/28 08:45:31;;;;;;;2.65;1.88;;;10.40;79.00;;;;;;5058094;28;20048;-85
2022/12/28 08:47:57;;;;;;;2.10;1.90;;;10.40;79.00;;;;;;5074432;28;20044;-84
2022/12/28 08:50:22;;;;;;;3.15;2.00;;;10.40;79.00;;;;;;5040935;28;20438;-87
2022/12/28 08:52:49;;;;;;;1.75;1.65;;;10.40;79.00;;;;;;5075168;28;20028;-86
2022/12/28 08:55:15;;;;;;;2.10;1.90;;;10.40;79.00;;;;;;5058103;28;20032;-89
2022/12/28 08:57:40;;;;;;;1.73;1.63;;;10.40;79.00;;;;;;5041923;28;20086;-87
2022/12/28 09:00:07;;;;;;;2.33;1.90;;;10.40;79.00;;;;;;5075422;28;20119;-87
2022/12/28 09:02:33;;;;;;;2.13;1.90;;;10.40;78.90;;;;;;5041929;28;20067;-87
2022/12/28 09:04:58;;;;;;;2.08;1.88;;;10.50;79.20;;;;;;5042703;28;20068;-88
2022/12/28 09:07:24;;;;;;;1.67;1.55;;;10.50;79.00;;;;;;5075330;28;20366;-87
2022/12/28 09:09:50;;;;;;;1.80;1.70;;;10.40;78.90;;;;;;5058175;28;20039;-86
2022/12/28 09:12:16;;;;;;;2.45;2.08;;;10.50;79.00;;;;;;5058391;28;20032;-86
2022/12/28 09:14:41;;;;;;;1.85;1.67;;;10.50;79.00;;;;;;5075488;28;20072;-85
2022/12/28 09:17:07;;;;;;;2.38;2.17;;;10.50;79.00;;;;;;5074518;28;20040;-87
2022/12/28 09:19:33;;;;;;;1.73;1.60;;;10.50;79.00;;;;;;5057728;28;20037;-86
2022/12/28 09:21:58;;;;;;;2.08;1.65;;;10.50;78.90;;;;;;5057411;28;20016;-86
2022/12/28 09:24:24;;;;;;;2.00;1.80;;;10.50;79.00;;;;;;5041924;28;20116;-85
2022/12/28 09:26:51;;;;;;;1.90;1.70;;;10.50;78.90;;;;;;5040816;28;20032;-84
2022/12/28 09:29:17;;;;;;;2.40;2.10;;;10.60;79.10;;;;;;5058222;28;20032;-82
2022/12/28 09:31:43;;;;;;;4.63;2.33;;;10.60;79.40;;;;;;5041053;28;20033;-83
2022/12/28 09:34:12;;;;;;;1.95;1.80;;;10.60;79.50;;;;;;5057810;28;20023;-90
2022/12/28 09:36:43;;;;;;;2.53;1.90;;;10.60;79.60;;;;;;5074282;28;20346;-92
2022/12/28 09:39:12;;;;;;;1.70;1.60;;;10.70;79.60;;;;;;5074141;28;20102;-90
2022/12/28 09:41:57;;;;;;;1.65;1.55;;;10.80;79.50;;;;;;5074855;28;20063;-86
2022/12/28 09:44:41;;;;;;;1.70;1.50;;;10.70;79.60;;;;;;5075075;28;20040;-85
2022/12/28 09:47:40;;;;;;;2.95;1.70;;;10.80;79.50;;;;;;5075372;28;20123;-85
2022/12/28 09:50:18;;;;;;;1.83;1.52;;;10.80;79.50;;;;;;5057783;28;20028;-86
2022/12/28 09:53:20;;;;;;;1.80;1.70;;;10.80;79.40;;;;;;5074037;28;20039;-89
2022/12/28 09:56:06;;;;;;;2.30;1.80;;;10.80;79.40;;;;;;5056786;28;20032;-90
2022/12/28 09:58:35;;;;;;;3.13;1.80;;;10.80;79.50;;;;;;5075106;28;20028;-86
2022/12/28 10:01:02;;;;;;;2.10;1.90;;;10.80;79.60;;;;;;5057558;28;20036;-87
2022/12/28 10:03:36;;;;;;;3.47;2.28;;;10.90;79.70;;;;;;5056751;28;20081;-82
2022/12/28 10:06:07;;;;;;;3.10;1.95;;;10.90;79.80;;;;;;5074664;28;20029;-85
2022/12/28 10:08:37;;;;;;;2.67;1.70;;;10.90;79.80;;;;;;5040860;28;20450;-84
2022/12/28 10:11:04;;;;;;;2.47;1.80;;;10.90;79.80;;;;;;5056780;28;20028;-84
2022/12/28 10:13:37;;;;;;;1.92;1.80;;;10.90;79.70;;;;;;5072845;28;20033;-87
2022/12/28 10:16:10;;;;;;;2.75;1.70;;;11.00;79.80;;;;;;5074270;28;20064;-83
2022/12/28 10:18:36;;;;;;;2.33;1.88;;;11.00;79.70;;;;;;5073412;28;20032;-84
2022/12/28 10:21:03;;;;;;;2.35;2.00;;;11.00;79.90;;;;;;5073844;28;20021;-85
2022/12/28 10:23:30;;;;;;;2.10;1.90;;;11.00;79.90;;;;;;5056474;28;20036;-82
2022/12/28 10:25:58;;;;;;;1.63;1.50;;;11.00;79.90;;;;;;5074901;28;20059;-86
2022/12/28 10:28:30;;;;;;;1.50;1.40;;;11.00;79.90;;;;;;5074015;28;20033;-85
2022/12/28 10:31:10;;;;;;;1.60;1.50;;;11.10;79.90;;;;;;5056655;28;20031;-85
2022/12/28 10:33:48;;;;;;;2.97;1.98;;;11.10;79.80;;;;;;5073817;28;20021;-84
2022/12/28 10:36:17;;;;;;;1.83;1.60;;;11.10;79.70;;;;;;5074449;28;20032;-83
2022/12/28 10:38:50;;;;;;;1.88;1.60;;;11.10;79.70;;;;;;5056220;28;20045;-84
2022/12/28 10:41:17;;;;;;;2.00;1.80;;;11.10;79.70;;;;;;5040466;28;20503;-82
2022/12/28 10:43:54;;;;;;;2.60;1.90;;;11.10;79.70;;;;;;5074928;28;20096;-83
2022/12/28 10:46:22;;;;;;;2.33;1.88;;;11.10;79.70;;;;;;5074450;28;20086;-83
2022/12/28 10:48:57;;;;;;;1.88;1.73;;;11.10;79.70;;;;;;5075377;28;20029;-83
2022/12/28 10:51:28;;;;;;;;;;;11.10;79.70;;;;;;5074614;28;20025;-84
2022/12/28 10:53:56;;;;;;;1.45;1.35;;;11.10;79.60;;;;;;5057264;28;19908;-84
2022/12/28 10:56:26;;;;;;;1.60;1.50;;;11.10;79.50;;;;;;5039958;28;20039;-85
2022/12/28 10:59:19;;;;;;;2.03;1.45;;;11.10;79.60;;;;;;5072778;28;20047;-85
2022/12/28 11:01:45;;;;;;;2.28;1.50;;;11.10;79.60;;;;;;5073812;28;20074;-84
2022/12/28 11:04:21;;;;;;;1.70;1.52;;;11.10;79.50;;;;;;5039210;28;20032;-83
2022/12/28 11:07:05;;;;;;;1.67;1.58;;;11.10;79.60;;;;;;5077470;28;20050;-83
2022/12/28 11:09:35;;;;;;;1.67;1.50;;;11.10;79.60;;;;;;5043050;28;20032;-84
2022/12/28 11:12:23;;;;;;;2.88;1.80;;;11.10;79.50;;;;;;5076302;28;20036;-83
2022/12/28 11:14:51;;;;;;;1.70;1.60;;;11.10;79.60;;;;;;5059495;28;20060;-85
2022/12/28 11:17:25;;;;;;;1.77;1.50;;;11.20;79.60;;;;;;5076224;28;20021;-84
2022/12/28 11:19:56;;;;;;;1.42;1.33;;;11.20;79.60;;;;;;5076081;28;20025;-84
2022/12/28 11:22:26;;;;;;;1.77;1.55;;;11.20;79.50;;;;;;5042963;28;20082;-85
2022/12/28 11:24:52;;;;;;;1.60;1.50;;;11.20;79.50;;;;;;5076913;28;20039;-85
2022/12/28 11:27:20;;;;;;;1.52;1.42;;;11.20;79.50;;;;;;5075972;28;20150;-83
2022/12/28 11:29:52;;;;;;;1.95;1.58;;;11.20;79.50;;;;;;5076092;28;20077;-85
2022/12/28 11:32:26;;;;;;;1.50;1.40;;;11.20;79.50;;;;;;5075781;28;20046;-84
2022/12/28 11:34:54;;;;;;;1.50;1.40;;;11.20;79.50;;;;;;5059385;28;20036;-85
2022/12/28 11:37:20;;;;;;;1.50;1.40;;;11.20;79.50;;;;;;5075743;28;20070;-85
2022/12/28 11:39:51;;;;;;;1.60;1.50;;;11.20;79.40;;;;;;5072979;28;20084;-85
2022/12/28 11:42:34;;;;;;;1.50;1.40;;;11.30;79.50;;;;;;5072592;28;20032;-84
2022/12/28 11:45:14;;;;;;;1.40;1.30;;;11.20;79.40;;;;;;5039073;28;20062;-84
2022/12/28 11:47:40;;;;;;;1.20;1.20;;;11.30;79.40;;;;;;5056965;28;20096;-84
2022/12/28 11:50:35;;;;;;;1.60;1.50;;;11.30;79.40;;;;;;5038992;28;20071;-85
2022/12/28 11:53:02;;;;;;;1.55;1.45;;;11.30;79.50;;;;;;5038990;28;20421;-82
2022/12/28 11:55:56;;;;;;;1.50;1.27;;;11.30;79.40;;;;;;5056444;28;20088;-84
2022/12/28 11:58:43;;;;;;;1.95;1.40;;;11.30;79.50;;;;;;5055034;28;20025;-83
2022/12/28 12:01:29;;;;;;;1.65;1.40;;;11.30;79.50;;;;;;5055232;28;20081;-84
2022/12/28 12:03:58;;;;;;;1.20;1.20;;;11.30;79.40;;;;;;5052364;28;20036;-82
2022/12/28 12:06:42;;;;;;;1.50;1.40;;;11.30;79.40;;;;;;5055110;28;20039;-83
2022/12/28 12:09:20;;;;;;;1.33;1.27;;;11.30;79.50;;;;;;5055870;28;20115;-86
2022/12/28 12:12:00;;;;;;;1.40;1.30;;;11.30;79.30;;;;;;5038398;28;20025;-83
2022/12/28 12:14:40;;;;;;;2.00;1.50;;;11.30;79.40;;;;;;5072669;28;20029;-83
2022/12/28 12:17:12;;;;;;;1.55;1.45;;;11.30;79.40;;;;;;5054142;28;20438;-82
2022/12/28 12:19:41;;;;;;;1.17;1.17;;;11.30;79.30;;;;;;5054863;28;20075;-83
2022/12/28 12:23:05;;;;;;;1.42;1.27;;;11.40;79.40;;;;;;5071694;28;20047;-81
2022/12/28 12:25:38;;;;;;;1.25;1.20;;;11.40;79.50;;;;;;5054251;28;20052;-82
2022/12/28 12:28:19;;;;;;;1.50;1.40;;;11.40;79.30;;;;;;5055174;28;20090;-83
2022/12/28 12:30:45;;;;;;;1.45;1.35;;;11.40;79.30;;;;;;5056347;28;20025;-84
2022/12/28 12:33:17;;;;;;;1.40;1.30;;;11.40;79.30;;;;;;5038287;28;20092;-84
2022/12/28 12:36:12;;;;;;;1.30;1.20;;;11.40;79.40;;;;;;5072265;28;20033;-84
2022/12/28 12:39:20;;;;;;;1.40;1.30;;;11.40;79.40;;;;;;5048973;28;20045;-83
2022/12/28 12:41:53;;;;;;;1.40;1.20;;;11.40;79.30;;;;;;5014496;28;20025;-83
2022/12/28 12:44:41;;;;;;;1.20;1.20;;;11.40;79.30;;;;;;5046755;28;20045;-84
2022/12/28 12:47:48;;;;;;;1.55;1.45;;;11.40;79.30;;;;;;5034878;28;20034;-83
2022/12/28 12:50:26;;;;;;;1.65;1.30;;;11.40;79.30;;;;;;5034849;28;20030;-82
2022/12/28 12:53:19;;;;;;;1.23;1.17;;;11.40;79.30;;;;;;5035351;28;20102;-82
2022/12/28 12:56:13;;;;;;;1.38;1.17;;;11.50;79.40;;;;;;5035043;28;20037;-82
2022/12/28 12:58:53;;;;;;;1.63;1.25;;;11.40;79.30;;;;;;5051239;28;20040;-82
2022/12/28 13:01:41;;;;;;;1.38;1.27;;;11.50;79.30;;;;;;5051527;28;20121;-82
2022/12/28 13:04:14;;;;;;;1.17;1.10;;;11.50;80.00;;;;;;5034445;28;20036;-83
2022/12/28 13:06:41;;;;;;;1.50;1.40;;;11.50;79.30;;;;;;5034681;28;20038;-81
2022/12/28 13:09:15;;;;;;;2.00;1.45;;;11.50;79.30;;;;;;5020616;28;20501;-83
2022/12/28 13:11:41;;;;;;;1.33;1.23;;;11.50;79.40;;;;;;5036648;28;20033;-82
2022/12/28 13:14:20;;;;;;;2.25;1.30;;;11.50;80.00;;;;;;5036697;28;20041;-82
2022/12/28 13:16:52;;;;;;;1.42;1.33;;;11.50;79.40;;;;;;5036888;28;20386;-83
2022/12/28 13:19:22;;;;;;;1.30;1.20;;;11.50;79.30;;;;;;5037434;28;20036;-83
2022/12/28 13:21:49;;;;;;;1.60;1.50;;;11.50;79.30;;;;;;5053682;28;20112;-83
2022/12/28 13:24:28;;;;;;;1.42;1.30;;;11.50;79.30;;;;;;5053991;28;20037;-83
2022/12/28 13:26:55;;;;;;;1.65;1.50;;;11.50;79.30;;;;;;5037708;28;20034;-82
2022/12/28 13:29:24;;;;;;;1.63;1.52;;;11.50;79.30;;;;;;5050444;28;20041;-83
2022/12/28 13:31:51;;;;;;;1.30;1.20;;;11.50;79.20;;;;;;5033887;28;20032;-83
2022/12/28 13:34:29;;;;;;;1.48;1.38;;;11.60;79.30;;;;;;5018215;28;20049;-84
2022/12/28 13:37:00;;;;;;;1.80;1.50;;;11.60;79.30;;;;;;5050671;28;20057;-83